createdAt,value
2019-04-21T00:00:25.994Z,11.80
2019-04-21T00:02:59.618Z,10.93
2019-04-21T00:05:49.933Z,11.23
2019-04-21T00:08:35.096Z,10.87
2019-04-21T00:10:56.743Z,11.43
2019-04-21T00:13:18.526Z,11.40
2019-04-21T00:15:45.817Z,11.47
2019-04-21T00:18:23.295Z,11.37
2019-04-21T00:20:58.000Z,11.00
2019-04-21T00:23:41.217Z,11.03
2019-04-21T00:26:09.034Z,10.97
2019-04-21T00:28:49.904Z,10.83
2019-04-21T00:31:15.327Z,11.63
2019-04-21T00:33:36.809Z,12.47
2019-04-21T00:36:11.452Z,12.80
2019-04-21T00:39:08.302Z,12.77
2019-04-21T00:41:29.877Z,12.17
2019-04-21T00:43:52.157Z,12.00
2019-04-21T00:46:26.725Z,11.30
2019-04-21T00:49:02.079Z,11.70
2019-04-21T00:51:51.105Z,12.10
2019-04-21T00:54:18.456Z,11.77
2019-04-21T00:56:49.624Z,11.40
2019-04-21T00:59:19.946Z,12.23
2019-04-21T01:01:47.775Z,10.83
2019-04-21T01:04:16.793Z,11.67
2019-04-21T01:06:54.462Z,11.27
2019-04-21T01:09:19.782Z,12.47
2019-04-21T01:11:59.335Z,12.23
2019-04-21T01:14:30.420Z,11.57
2019-04-21T01:16:57.720Z,10.73
2019-04-21T01:19:25.245Z,12.37
2019-04-21T01:21:38.529Z,11.80
2019-04-21T01:24:18.588Z,11.57
2019-04-21T01:26:53.702Z,11.50
2019-04-21T01:29:29.078Z,11.27
2019-04-21T01:32:10.669Z,11.90
2019-04-21T01:34:33.208Z,12.53
2019-04-21T01:37:03.962Z,12.00
2019-04-21T01:39:40.910Z,11.17
2019-04-21T01:42:09.460Z,11.53
2019-04-21T01:44:41.651Z,12.50
2019-04-21T01:47:10.152Z,12.50
2019-04-21T01:49:34.743Z,11.27
2019-04-21T01:52:25.768Z,11.60
2019-04-21T01:55:01.898Z,12.60
2019-04-21T01:57:29.411Z,13.07
2019-04-21T01:59:57.017Z,12.37
2019-04-21T02:02:36.079Z,13.03
2019-04-21T02:05:17.040Z,13.40
2019-04-21T02:07:40.657Z,13.40
2019-04-21T02:10:17.893Z,12.63
2019-04-21T02:12:44.463Z,12.27
2019-04-21T02:15:26.889Z,13.43
2019-04-21T02:17:49.380Z,12.70
2019-04-21T02:20:12.004Z,11.77
2019-04-21T02:23:07.374Z,11.97
2019-04-21T02:25:29.728Z,13.07
2019-04-21T02:27:57.591Z,12.13
2019-04-21T02:30:51.532Z,12.77
2019-04-21T02:33:09.600Z,12.63
2019-04-21T02:36:00.531Z,12.67
2019-04-21T02:38:33.829Z,12.67
2019-04-21T02:40:46.583Z,13.37
2019-04-21T02:43:19.162Z,11.97
2019-04-21T02:45:56.092Z,12.47
2019-04-21T02:48:22.636Z,12.60
2019-04-21T02:50:47.325Z,13.30
2019-04-21T02:53:35.363Z,12.10
2019-04-21T02:58:43.729Z,13.03
2019-04-21T03:01:12.469Z,11.93
2019-04-21T03:03:52.927Z,11.40
2019-04-21T03:06:25.427Z,12.53
2019-04-21T03:08:58.842Z,12.23
2019-04-21T03:11:17.636Z,11.90
2019-04-21T03:14:05.614Z,13.57
2019-04-21T03:16:32.915Z,13.37
2019-04-21T03:18:56.573Z,12.67
2019-04-21T03:21:29.069Z,13.13
2019-04-21T03:24:01.296Z,12.90
2019-04-21T03:26:40.635Z,13.37
2019-04-21T03:29:02.450Z,12.53
2019-04-21T03:39:11.883Z,12.20
2019-04-21T03:41:48.171Z,11.73
2019-04-21T03:44:16.599Z,12.30
2019-04-21T03:46:47.407Z,12.97
2019-04-21T03:49:27.979Z,12.97
2019-04-21T03:54:18.089Z,13.63
2019-04-21T03:57:14.375Z,12.67
2019-04-21T03:59:16.099Z,12.47
2019-04-21T04:02:18.543Z,13.00
2019-04-21T04:05:03.374Z,12.43
2019-04-21T04:12:35.046Z,11.97
2019-04-21T04:15:18.348Z,11.63
2019-04-21T04:20:16.414Z,12.20
2019-04-21T04:22:48.162Z,12.83
2019-04-21T04:25:21.007Z,12.23
2019-04-21T04:35:21.456Z,12.80
2019-04-21T04:37:57.444Z,12.80
2019-04-21T04:40:31.414Z,12.80
2019-04-21T04:43:14.691Z,13.33
2019-04-21T04:45:56.674Z,12.53
2019-04-21T04:48:11.471Z,13.10
2019-04-21T04:50:49.367Z,13.33
2019-04-21T04:53:26.733Z,13.53
2019-04-21T04:55:47.984Z,11.97
2019-04-21T04:58:19.249Z,13.23
2019-04-21T05:01:09.664Z,12.87
2019-04-21T05:03:37.130Z,12.90
2019-04-21T05:06:37.269Z,12.67
2019-04-21T05:09:07.847Z,13.43
2019-04-21T05:11:37.713Z,13.80
2019-04-21T05:14:03.354Z,12.70
2019-04-21T05:16:38.459Z,12.83
2019-04-21T05:23:51.165Z,11.60
2019-04-21T05:26:14.487Z,12.73
2019-04-21T05:28:47.436Z,11.07
2019-04-21T05:31:38.629Z,11.93
2019-04-21T05:34:18.486Z,11.90
2019-04-21T05:36:52.329Z,12.00
2019-04-21T05:39:24.535Z,12.70
2019-04-21T05:41:49.672Z,11.53
2019-04-21T05:44:45.546Z,11.63
2019-04-21T05:47:18.822Z,12.00
2019-04-21T05:49:36.995Z,11.70
2019-04-21T05:52:03.688Z,11.70
2019-04-21T05:57:10.128Z,11.93
2019-04-21T05:59:45.811Z,12.23
2019-04-21T06:07:25.456Z,12.20
2019-04-21T06:09:57.139Z,11.47
2019-04-21T06:12:29.548Z,11.23
2019-04-21T06:15:14.330Z,10.07
2019-04-21T06:20:02.940Z,9.63
2019-04-21T06:22:28.891Z,8.73
2019-04-21T06:27:50.770Z,8.53
2019-04-21T06:30:03.471Z,8.53
2019-04-21T06:32:47.084Z,8.20
2019-04-21T06:35:45.542Z,8.43
2019-04-21T06:38:23.434Z,8.53
2019-04-21T06:40:35.758Z,9.17
2019-04-21T06:43:11.322Z,8.40
2019-04-21T06:45:41.247Z,8.20
2019-04-21T06:48:12.203Z,7.83
2019-04-21T06:50:46.799Z,7.83
2019-04-21T06:53:16.488Z,7.67
2019-04-21T06:55:37.821Z,6.97
2019-04-21T06:58:11.270Z,6.60
2019-04-21T07:00:43.236Z,6.23
2019-04-21T07:03:20.708Z,5.40
2019-04-21T07:05:48.491Z,5.50
2019-04-21T07:08:31.301Z,5.20
2019-04-21T07:10:52.040Z,5.03
2019-04-21T07:13:22.256Z,4.90
2019-04-21T07:16:00.579Z,5.43
2019-04-21T07:18:31.071Z,4.80
2019-04-21T07:21:02.725Z,4.10
2019-04-21T07:23:30.261Z,4.40
2019-04-21T07:26:02.986Z,4.07
2019-04-21T07:28:32.244Z,4.13
2019-04-21T07:31:10.889Z,4.07
2019-04-21T07:36:09.975Z,4.00
2019-04-21T07:38:33.192Z,4.77
2019-04-21T07:41:02.124Z,4.73
2019-04-21T07:43:33.997Z,4.80
2019-04-21T07:46:06.764Z,4.67
2019-04-21T07:48:51.175Z,4.73
2019-04-21T07:51:37.806Z,5.33
2019-04-21T07:54:13.359Z,4.43
2019-04-21T07:56:28.831Z,4.57
2019-04-21T07:59:18.917Z,4.70
2019-04-21T08:01:48.404Z,4.90
2019-04-21T08:04:38.023Z,5.00
2019-04-21T08:06:49.461Z,5.00
2019-04-21T08:09:19.832Z,4.63
2019-04-21T08:11:48.656Z,4.70
2019-04-21T08:14:24.306Z,4.57
2019-04-21T08:16:57.186Z,4.53
2019-04-21T08:19:25.100Z,4.00
2019-04-21T08:22:01.051Z,4.50
2019-04-21T08:24:28.600Z,4.43
2019-04-21T08:27:05.128Z,4.00
2019-04-21T08:29:33.414Z,4.23
2019-04-21T08:34:34.665Z,4.10
2019-04-21T08:37:05.456Z,4.50
2019-04-21T08:39:49.554Z,3.80
2019-04-21T08:42:14.807Z,3.70
2019-04-21T08:47:15.391Z,4.03
2019-04-21T08:49:41.373Z,3.70
2019-04-21T08:52:28.271Z,3.80
2019-04-21T08:54:53.637Z,3.53
2019-04-21T08:57:50.849Z,3.20
2019-04-21T09:00:29.649Z,3.77
2019-04-21T09:03:02.353Z,3.13
2019-04-21T09:05:29.567Z,3.50
2019-04-21T09:08:04.045Z,3.20
2019-04-21T09:10:34.802Z,2.80
2019-04-21T09:13:04.439Z,2.47
2019-04-21T09:15:38.152Z,2.60
2019-04-21T09:18:02.842Z,2.60
2019-04-21T09:20:46.155Z,2.80
2019-04-21T09:23:13.522Z,2.23
2019-04-21T09:25:49.571Z,2.80
2019-04-21T09:28:14.045Z,2.80
2019-04-21T09:30:33.783Z,2.80
2019-04-21T09:33:01.959Z,2.43
2019-04-21T09:35:31.624Z,2.70
2019-04-21T09:38:13.404Z,2.40
2019-04-21T09:40:37.204Z,2.60
2019-04-21T09:43:08.504Z,2.70
2019-04-21T09:45:37.627Z,2.50
2019-04-21T09:48:12.426Z,3.00
2019-04-21T09:50:39.804Z,3.00
2019-04-21T09:53:20.938Z,2.80
2019-04-21T09:55:50.234Z,2.60
2019-04-21T09:58:23.958Z,2.77
2019-04-21T10:00:59.139Z,2.83
2019-04-21T10:03:19.096Z,2.70
2019-04-21T10:05:48.047Z,3.00
2019-04-21T10:08:18.834Z,2.87
2019-04-21T10:10:49.058Z,2.90
2019-04-21T10:13:19.036Z,2.83
2019-04-21T10:15:50.585Z,2.77
2019-04-21T10:18:21.937Z,3.10
2019-04-21T10:20:51.663Z,2.90
2019-04-21T10:23:21.441Z,3.23
2019-04-21T10:25:52.517Z,2.80
2019-04-21T10:28:23.304Z,2.77
2019-04-21T10:30:53.275Z,2.90
2019-04-21T10:33:24.098Z,3.20
2019-04-21T10:35:55.150Z,3.00
2019-04-21T10:38:33.216Z,2.97
2019-04-21T10:40:57.132Z,3.57
2019-04-21T10:43:27.504Z,3.30
2019-04-21T10:45:57.268Z,2.83
2019-04-21T10:48:28.402Z,3.07
2019-04-21T10:50:59.112Z,3.50
2019-04-21T10:53:36.794Z,2.83
2019-04-21T10:56:14.510Z,3.40
2019-04-21T10:58:40.514Z,2.87
2019-04-21T11:01:12.771Z,3.33
2019-04-21T11:04:00.858Z,3.20
2019-04-21T11:06:31.022Z,4.07
2019-04-21T11:09:01.959Z,3.10
2019-04-21T11:11:32.507Z,2.80
2019-04-21T11:14:02.545Z,3.20
2019-04-21T11:16:33.217Z,2.93
2019-04-21T11:19:04.031Z,3.20
2019-04-21T11:21:34.649Z,2.97
2019-04-21T11:24:06.030Z,3.10
2019-04-21T11:26:36.139Z,3.23
2019-04-21T11:29:07.261Z,3.13
2019-04-21T11:31:37.000Z,3.50
2019-04-21T11:34:07.278Z,3.37
2019-04-21T11:36:37.483Z,2.97
2019-04-21T11:39:25.656Z,3.53
2019-04-21T11:41:47.751Z,3.10
2019-04-21T11:44:18.605Z,3.30
2019-04-21T11:46:49.302Z,3.10
2019-04-21T11:49:20.049Z,3.07
2019-04-21T11:51:56.536Z,3.93
2019-04-21T11:54:26.910Z,3.30
2019-04-21T11:56:57.103Z,3.37
2019-04-21T11:59:27.980Z,3.50
2019-04-21T12:01:57.807Z,3.10
2019-04-21T12:04:27.664Z,2.90
2019-04-21T12:06:57.881Z,3.30
2019-04-21T12:09:29.219Z,3.50
2019-04-21T12:11:59.512Z,3.23
2019-04-21T12:14:30.248Z,3.13
2019-04-21T12:17:01.092Z,3.50
2019-04-21T12:19:32.570Z,3.33
2019-04-21T12:22:10.968Z,3.00
2019-04-21T12:28:19.788Z,3.00
2019-04-21T12:31:00.314Z,3.37
2019-04-21T12:33:40.483Z,3.10
2019-04-21T12:36:18.065Z,3.00
2019-04-21T12:39:01.069Z,3.20
2019-04-21T12:41:31.177Z,2.93
2019-04-21T12:44:06.663Z,3.20
2019-04-21T12:46:45.583Z,3.37
2019-04-21T12:49:20.222Z,3.53
2019-04-21T12:51:55.560Z,3.30
2019-04-21T12:54:27.855Z,3.07
2019-04-21T12:57:01.645Z,3.33
2019-04-21T12:59:39.671Z,3.30
2019-04-21T13:02:14.209Z,3.13
2019-04-21T13:04:46.212Z,3.00
2019-04-21T13:07:17.396Z,3.13
2019-04-21T13:09:48.423Z,4.80
2019-04-21T13:12:19.402Z,4.33
2019-04-21T13:14:49.634Z,4.60
2019-04-21T13:17:19.608Z,4.70
2019-04-21T13:19:49.653Z,5.10
2019-04-21T13:22:19.564Z,5.10
2019-04-21T13:24:49.651Z,4.73
2019-04-21T13:27:20.638Z,4.80
2019-04-21T13:29:50.693Z,4.47
2019-04-21T13:32:20.581Z,4.50
2019-04-21T13:34:50.950Z,4.70
2019-04-21T13:37:21.454Z,4.80
2019-04-21T13:40:24.845Z,4.50
2019-04-21T13:42:43.799Z,4.50
2019-04-21T13:45:12.177Z,4.40
2019-04-21T13:47:42.889Z,4.70
2019-04-21T13:50:13.378Z,4.80
2019-04-21T13:52:44.769Z,4.70
2019-04-21T13:55:15.867Z,4.47
2019-04-21T13:57:46.476Z,4.70
2019-04-21T14:00:17.301Z,4.90
2019-04-21T14:02:47.171Z,4.37
2019-04-21T14:05:18.167Z,4.90
2019-04-21T14:07:48.209Z,5.07
2019-04-21T14:10:19.748Z,5.87
2019-04-21T14:12:50.685Z,5.03
2019-04-21T14:15:22.450Z,4.93
2019-04-21T14:17:53.103Z,5.30
2019-04-21T14:20:24.941Z,5.03
2019-04-21T14:22:57.148Z,5.90
2019-04-21T14:25:27.851Z,5.67
2019-04-21T14:27:57.918Z,5.77
2019-04-21T14:30:28.445Z,5.57
2019-04-21T14:32:58.461Z,5.93
2019-04-21T14:35:29.375Z,5.40
2019-04-21T14:38:00.647Z,5.03
2019-04-21T14:40:33.201Z,5.43
2019-04-21T14:43:02.621Z,6.30
2019-04-21T14:45:43.449Z,5.30
2019-04-21T14:48:32.802Z,5.57
2019-04-21T14:51:07.343Z,5.50
2019-04-21T14:53:45.634Z,4.90
2019-04-21T14:56:15.731Z,5.40
2019-04-21T14:58:46.858Z,5.40
2019-04-21T15:01:17.819Z,5.57
2019-04-21T15:03:47.968Z,5.50
2019-04-21T15:06:18.956Z,5.53
2019-04-21T15:08:49.246Z,5.47
2019-04-21T15:11:20.046Z,5.40
2019-04-21T15:13:51.381Z,5.30
2019-04-21T15:16:22.539Z,5.50
2019-04-21T15:18:52.849Z,5.17
2019-04-21T15:21:23.573Z,5.53
2019-04-21T15:23:54.146Z,5.83
2019-04-21T15:26:24.199Z,6.03
2019-04-21T15:28:54.963Z,5.70
2019-04-21T15:31:32.082Z,5.53
2019-04-21T15:33:59.183Z,5.53
2019-04-21T15:36:33.451Z,5.43
2019-04-21T15:39:03.622Z,5.20
2019-04-21T15:41:34.408Z,5.33
2019-04-21T15:44:06.085Z,5.37
2019-04-21T15:46:36.028Z,6.23
2019-04-21T15:49:06.997Z,5.47
2019-04-21T15:51:38.019Z,5.67
2019-04-21T15:54:08.843Z,6.20
2019-04-21T15:56:44.771Z,6.30
2019-04-21T15:59:22.375Z,7.17
2019-04-21T16:01:54.620Z,6.83
2019-04-21T16:04:25.126Z,6.33
2019-04-21T16:06:55.496Z,6.43
2019-04-21T16:09:27.746Z,6.30
2019-04-21T16:11:57.943Z,6.83
2019-04-21T16:14:29.017Z,6.57
2019-04-21T16:16:59.187Z,5.93
2019-04-21T16:19:29.420Z,5.93
2019-04-21T16:21:59.228Z,6.90
2019-04-21T16:24:29.169Z,7.03
2019-04-21T16:27:01.685Z,6.83
2019-04-21T16:29:31.206Z,7.07
2019-04-21T16:32:01.697Z,7.40
2019-04-21T16:34:41.367Z,6.40
2019-04-21T16:37:03.602Z,6.90
2019-04-21T16:39:33.661Z,6.73
2019-04-21T16:42:03.459Z,6.27
2019-04-21T16:44:34.670Z,7.30
2019-04-21T16:47:05.742Z,7.07
2019-04-21T16:49:35.894Z,6.80
2019-04-21T16:52:18.276Z,6.70
2019-04-21T16:54:49.953Z,6.63
2019-04-21T16:57:24.098Z,6.97
2019-04-21T16:59:56.754Z,6.43
2019-04-21T17:02:28.289Z,6.33
2019-04-21T17:04:58.212Z,6.10
2019-04-21T17:07:28.256Z,6.20
2019-04-21T17:09:58.918Z,6.60
2019-04-21T17:12:30.538Z,6.27
2019-04-21T17:15:13.874Z,6.50
2019-04-21T17:17:51.416Z,6.33
2019-04-21T17:20:17.188Z,6.70
2019-04-21T17:22:35.510Z,6.70
2019-04-21T17:25:08.631Z,6.30
2019-04-21T17:27:39.013Z,6.83
2019-04-21T17:30:10.711Z,6.60
2019-04-21T17:32:46.952Z,6.70
2019-04-21T17:35:12.481Z,5.93
2019-04-21T17:37:42.429Z,6.30
2019-04-21T17:40:13.789Z,6.70
2019-04-21T17:42:51.099Z,6.63
2019-04-21T17:45:15.362Z,6.23
2019-04-21T17:47:52.346Z,5.83
2019-04-21T17:50:20.558Z,6.10
2019-04-21T17:53:06.485Z,6.77
2019-04-21T17:55:37.413Z,6.30
2019-04-21T17:58:25.025Z,5.73
2019-04-21T18:01:13.907Z,6.10
2019-04-21T18:03:45.691Z,6.17
2019-04-21T18:06:03.733Z,5.93
2019-04-21T18:08:40.499Z,6.03
2019-04-21T18:11:03.328Z,5.50
2019-04-21T18:13:26.546Z,5.70
2019-04-21T18:16:09.738Z,5.90
2019-04-21T18:18:28.637Z,5.57
2019-04-21T18:21:07.036Z,5.77
2019-04-21T18:23:50.573Z,5.60
2019-04-21T18:26:27.130Z,5.77
2019-04-21T18:28:44.608Z,5.20
2019-04-21T18:31:14.865Z,5.23
2019-04-21T18:33:47.850Z,5.90
2019-04-21T18:36:29.085Z,5.90
2019-04-21T18:39:09.775Z,6.27
2019-04-21T18:41:32.271Z,6.00
2019-04-21T18:44:32.169Z,6.50
2019-04-21T18:47:06.927Z,6.20
2019-04-21T18:49:19.509Z,5.73
2019-04-21T18:52:02.841Z,5.90
2019-04-21T18:54:47.100Z,6.23
2019-04-21T18:57:08.105Z,6.30
2019-04-21T18:59:36.109Z,6.13
2019-04-21T19:02:08.069Z,6.47
2019-04-21T19:04:37.074Z,6.30
2019-04-21T19:07:19.858Z,6.47
2019-04-21T19:12:47.622Z,6.33
2019-04-21T19:14:56.302Z,6.87
2019-04-21T19:18:05.382Z,6.83
2019-04-21T19:20:07.669Z,6.70
2019-04-21T19:22:34.475Z,8.63
2019-04-21T19:25:04.803Z,7.37
2019-04-21T19:27:32.426Z,7.00
2019-04-21T19:30:28.832Z,7.57
2019-04-21T19:32:33.474Z,7.50
2019-04-21T19:34:59.518Z,7.43
2019-04-21T19:37:28.225Z,26.63
2019-04-21T19:40:07.793Z,21.40
2019-04-21T19:42:37.574Z,14.10
2019-04-21T19:45:19.064Z,15.30
2019-04-21T19:47:48.789Z,12.70
2019-04-21T19:50:26.387Z,13.80
2019-04-21T19:52:55.582Z,9.87
2019-04-21T19:55:16.190Z,10.73
2019-04-21T19:57:47.077Z,10.97
2019-04-21T20:00:17.856Z,11.97
2019-04-21T20:02:50.292Z,13.30
2019-04-21T20:05:30.409Z,12.57
2019-04-21T20:08:08.277Z,12.10
2019-04-21T20:10:44.456Z,12.10
2019-04-21T20:13:14.477Z,12.57
2019-04-21T20:15:45.421Z,11.80
2019-04-21T20:18:07.070Z,9.77
2019-04-21T20:20:30.987Z,11.50
2019-04-21T20:23:01.295Z,10.10
2019-04-21T20:25:41.803Z,9.90
2019-04-21T20:28:09.902Z,9.50
2019-04-21T20:30:48.990Z,8.17
2019-04-21T20:36:20.103Z,8.87
2019-04-21T20:38:24.744Z,8.33
2019-04-21T20:40:51.111Z,8.17
2019-04-21T20:43:37.629Z,7.87
2019-04-21T20:46:02.409Z,7.40
2019-04-21T20:48:29.990Z,6.70
2019-04-21T20:51:05.129Z,6.97
2019-04-21T20:53:37.973Z,6.70
2019-04-21T20:56:02.310Z,6.80
2019-04-21T20:58:41.397Z,7.40
2019-04-21T21:01:25.407Z,6.53
2019-04-21T21:03:43.225Z,6.77
2019-04-21T21:06:15.823Z,7.00
2019-04-21T21:08:45.368Z,6.33
2019-04-21T21:11:22.219Z,6.63
2019-04-21T21:13:54.837Z,6.77
2019-04-21T21:19:08.209Z,6.50
2019-04-21T21:21:23.019Z,6.73
2019-04-21T21:23:54.675Z,6.47
2019-04-21T21:26:44.970Z,6.67
2019-04-21T21:28:54.691Z,6.13
2019-04-21T21:31:33.216Z,6.47
2019-04-21T21:34:25.919Z,7.00
2019-04-21T21:36:36.495Z,6.47
2019-04-21T21:39:09.538Z,6.50
2019-04-21T21:41:26.430Z,6.70
2019-04-21T21:44:00.736Z,7.17
2019-04-21T21:46:42.279Z,6.07
2019-04-21T21:49:05.179Z,6.87
2019-04-21T21:51:39.847Z,6.67
2019-04-21T21:53:59.032Z,6.17
2019-04-21T21:56:29.117Z,7.00
2019-04-21T21:59:01.247Z,7.00
2019-04-21T22:01:37.916Z,7.87
2019-04-21T22:04:11.086Z,8.13
2019-04-21T22:06:44.644Z,7.27
2019-04-21T22:09:10.584Z,8.53
2019-04-21T22:11:42.195Z,8.00
2019-04-21T22:14:22.886Z,7.30
2019-04-21T22:16:57.522Z,7.33
2019-04-21T22:19:34.104Z,8.00
2019-04-21T22:22:07.299Z,7.10
2019-04-21T22:24:35.184Z,8.27
2019-04-21T22:26:52.460Z,7.57
2019-04-21T22:29:21.611Z,7.57
2019-04-21T22:31:52.699Z,7.47
2019-04-21T22:34:29.686Z,6.87
2019-04-21T22:37:13.491Z,7.20
2019-04-21T22:39:45.932Z,7.70
2019-04-21T22:42:05.034Z,7.40
2019-04-21T22:44:30.196Z,7.47
2019-04-21T22:47:08.552Z,7.67
2019-04-21T22:49:32.604Z,7.50
2019-04-21T22:52:10.398Z,7.97
2019-04-21T22:54:39.117Z,7.60
2019-04-21T22:57:12.761Z,8.60
2019-04-21T22:59:37.553Z,8.57
2019-04-21T23:02:15.384Z,8.97
2019-04-21T23:04:45.152Z,8.10
2019-04-21T23:07:15.102Z,8.20
2019-04-21T23:09:43.215Z,8.93
2019-04-21T23:12:20.457Z,8.70
2019-04-21T23:14:52.205Z,9.03
2019-04-21T23:17:38.971Z,8.53
2019-04-21T23:20:08.911Z,10.13
2019-04-21T23:22:49.409Z,8.77
2019-04-21T23:25:09.441Z,8.37
2019-04-21T23:27:40.620Z,7.67
2019-04-21T23:30:20.247Z,7.80
2019-04-21T23:32:36.277Z,7.33
2019-04-21T23:35:02.857Z,7.40
2019-04-21T23:37:32.739Z,7.27
2019-04-21T23:40:07.542Z,8.00
2019-04-21T23:42:37.102Z,7.47
2019-04-21T23:45:05.385Z,7.90
2019-04-21T23:48:19.652Z,7.17
2019-04-21T23:50:49.459Z,7.23
2019-04-21T23:53:13.589Z,7.30
2019-04-21T23:55:43.456Z,7.80
2019-04-21T23:58:20.147Z,7.67
